Weather at Amsterdam Airport Schiphol

Public forecast

Using degrees Celsius for public forecast. Weather courtesy of forecast.io.

Current aviation weather report (METAR) for Amsterdam Airport Schiphol

Retrieved 2021/05/11 19:25 UTC (23 minutes ago):

EHAM 111925Z 05002KT 9999 FEW031 13/11 Q1009 NOSIG

Aviation forecast (TAF) for Amsterdam Airport Schiphol

Retrieved 2021/05/11 18:27 UTC (1 hour ago):

TAF TAF EHAM 111716Z 1118/1224 04005KT 9999 FEW035 PROB30 TEMPO 1118/1120 7000 -SHRA SCT030CB BECMG 1119/1122 26007KT BECMG 1205/1208 24012KT BECMG 1215/1218 33005KT